Time;durP1;ratioP1;P1;durP2;ratioP2;P2;SDS_P1;SDS_P2;PMS_P1;PMS_P2;Temp;Humidity;BMP_temperature;BMP_pressure;BME280_temperature;BME280_humidity;BME280_pressure;Samples;Min_cycle;Max_cycle;Signal;HPM_P1;HPM_P2
2022/12/17 13:06:37;;;;;;;115.78;42.45;;;;;;;-3.03;74.28;99163.72;5088913;28;20366;-76
2022/12/17 13:09:26;;;;;;;108.93;38.88;;;;;;;-3.05;73.93;99154.22;5088470;28;20040;-76
2022/12/17 13:12:03;;;;;;;105.32;34.38;;;;;;;-3.11;73.99;99150.47;5071894;28;20040;-77
2022/12/17 13:15:02;;;;;;;105.68;35.70;;;;;;;-3.14;74.07;99158.88;5087917;28;20036;-75
2022/12/17 13:17:33;;;;;;;101.25;33.30;;;;;;;-3.12;74.32;99161.38;5065756;28;20028;-79
2022/12/17 13:20:21;;;;;;;97.82;32.72;;;;;;;-3.10;74.21;99160.16;5087952;28;20048;-76
2022/12/17 13:23:13;;;;;;;95.43;30.02;;;;;;;-3.13;73.94;99165.91;5086363;28;20032;-76
2022/12/17 13:25:40;;;;;;;99.00;32.72;;;;;;;-3.11;74.24;99166.56;5087332;28;20028;-75
2022/12/17 13:28:25;;;;;;;98.68;31.35;;;;;;;-3.08;74.27;99170.69;5089190;28;20020;-75
2022/12/17 13:31:00;;;;;;;94.93;31.85;;;;;;;-3.04;74.28;99183.53;5067218;28;20028;-75
2022/12/17 13:33:49;;;;;;;102.60;32.88;;;;;;;-2.99;74.20;99175.75;5089533;28;20040;-74
2022/12/17 13:36:26;;;;;;;99.35;33.53;;;;;;;-2.95;74.17;99188.78;5070704;28;20177;-74
2022/12/17 13:39:21;;;;;;;117.57;37.42;;;;;;;-2.93;74.16;99186.75;5088974;28;20024;-75
2022/12/17 13:41:54;;;;;;;103.20;33.35;;;;;;;-2.89;74.11;99196.09;5087173;28;20636;-75
2022/12/17 13:44:30;;;;;;;114.15;34.45;;;;;;;-2.87;74.05;99196.72;5089685;28;20097;-74
2022/12/17 13:46:55;;;;;;;105.35;33.97;;;;;;;-2.91;74.00;99201.66;5088632;28;20035;-75
2022/12/17 13:49:26;;;;;;;139.02;49.88;;;;;;;-2.93;74.08;99200.16;5072526;28;20040;-75
2022/12/17 13:52:13;;;;;;;191.48;64.45;;;;;;;-2.93;74.02;99205.53;5093157;28;20158;-76
2022/12/17 13:54:38;;;;;;;209.15;97.47;;;;;;;-2.91;74.14;99222.28;5093012;28;20032;-75
2022/12/17 13:57:15;;;;;;;155.73;56.08;;;;;;;-2.94;74.16;99215.47;5093007;28;20089;-74
2022/12/17 13:59:52;;;;;;;120.30;38.97;;;;;;;-2.94;74.02;99219.97;5092934;28;20028;-75
2022/12/17 14:02:31;;;;;;;93.10;32.17;;;;;;;-2.97;74.19;99223.88;5092267;28;20027;-74
2022/12/17 14:04:59;;;;;;;102.45;33.75;;;;;;;-2.97;73.90;99225.72;5092775;28;20054;-74
2022/12/17 14:07:26;;;;;;;102.20;33.05;;;;;;;-3.00;74.18;99225.09;5094078;28;20068;-74
2022/12/17 14:09:53;;;;;;;109.38;37.53;;;;;;;-2.99;74.25;99226.75;5091757;28;20028;-75
2022/12/17 14:12:21;;;;;;;112.43;38.33;;;;;;;-3.02;74.03;99232.50;5091403;28;20043;-74
2022/12/17 14:14:51;;;;;;;93.88;30.45;;;;;;;-3.06;74.07;99243.81;5093538;28;20035;-72
2022/12/17 14:17:24;;;;;;;91.82;28.48;;;;;;;-3.16;73.87;99246.78;5093875;28;20086;-72
2022/12/17 14:20:21;;;;;;;89.70;30.98;;;;;;;-3.21;74.08;99250.00;5093748;28;20016;-72
2022/12/17 14:22:49;;;;;;;95.15;31.02;;;;;;;-3.23;73.86;99267.34;5067407;28;20568;-74
2022/12/17 14:25:17;;;;;;;116.20;32.40;;;;;;;-3.29;74.04;99263.56;5094031;28;20535;-71
2022/12/17 14:27:56;;;;;;;101.85;29.75;;;;;;;-3.30;74.20;99265.38;5093787;28;20024;-76
2022/12/17 14:30:23;;;;;;;97.85;29.15;;;;;;;-3.31;74.05;99273.63;5075285;28;20436;-72
2022/12/17 14:32:49;;;;;;;91.65;27.30;;;;;;;-3.37;74.12;99275.19;5093339;28;20383;-79
2022/12/17 14:35:26;;;;;;;88.90;30.52;;;;;;;-3.43;74.11;99275.94;5089603;28;20040;-79
2022/12/17 14:37:52;;;;;;;107.75;32.40;;;;;;;-3.48;74.29;99276.50;5093603;28;20028;-78
2022/12/17 14:40:18;;;;;;;98.03;30.27;;;;;;;-3.47;74.02;99275.47;5093327;28;20085;-79
2022/12/17 14:42:44;;;;;;;108.30;32.30;;;;;;;-3.47;74.20;99282.72;5093573;28;20024;-81
2022/12/17 14:45:15;;;;;;;103.90;33.00;;;;;;;-3.48;74.26;99278.34;5093290;28;20032;-68
2022/12/17 14:47:57;;;;;;;103.75;32.65;;;;;;;-3.45;74.34;99280.66;5092467;28;20055;-68
2022/12/17 14:50:29;;;;;;;99.05;30.90;;;;;;;-3.40;73.98;99280.94;5089171;28;20040;-69
2022/12/17 14:52:57;;;;;;;92.82;28.13;;;;;;;-3.37;74.23;99288.59;5089971;28;20039;-68
2022/12/17 14:55:23;;;;;;;87.70;26.88;;;;;;;-3.34;74.50;99296.28;5089278;28;20024;-67
2022/12/17 14:57:50;;;;;;;108.10;31.50;;;;;;;-3.33;74.08;99297.94;5092236;28;20024;-68
2022/12/17 15:00:15;;;;;;;94.95;30.40;;;;;;;-3.29;74.55;99304.63;5091371;28;20027;-68
2022/12/17 15:02:43;;;;;;;102.35;33.22;;;;;;;-3.25;74.22;99309.59;5091423;28;20089;-68
2022/12/17 15:05:13;;;;;;;111.63;36.22;;;;;;;-3.22;74.32;99318.09;5091683;28;20032;-70
2022/12/17 15:07:39;;;;;;;133.30;40.72;;;;;;;-3.18;74.25;99310.53;5090297;28;20031;-73
2022/12/17 15:10:13;;;;;;;111.93;36.95;;;;;;;-3.17;74.55;99321.06;5091730;28;20020;-72
2022/12/17 15:12:42;;;;;;;116.80;38.70;;;;;;;-3.18;73.76;99322.09;5089447;28;20032;-72
2022/12/17 15:15:12;;;;;;;108.57;38.42;;;;;;;-3.18;74.25;99332.00;5085337;28;20173;-72
2022/12/17 15:17:37;;;;;;;134.07;43.13;;;;;;;-3.15;74.36;99326.28;5087995;28;20102;-72
2022/12/17 15:20:03;;;;;;;120.50;38.22;;;;;;;-3.13;74.62;99337.66;5085541;28;20036;-67
2022/12/17 15:22:29;;;;;;;98.47;31.45;;;;;;;-3.13;74.26;99345.69;5087928;28;20027;-69
2022/12/17 15:24:54;;;;;;;94.30;30.98;;;;;;;-3.15;73.91;99356.59;5090056;28;20098;-69
2022/12/17 15:27:20;;;;;;;84.18;27.85;;;;;;;-3.20;73.96;99358.19;5090161;28;20026;-69
2022/12/17 15:29:47;;;;;;;77.68;26.52;;;;;;;-3.25;74.23;99349.84;5089398;28;20051;-69
2022/12/17 15:32:18;;;;;;;86.80;27.92;;;;;;;-3.32;74.17;99357.81;5072292;28;20123;-71
2022/12/17 15:34:43;;;;;;;85.35;28.90;;;;;;;-3.35;74.06;99361.69;5090446;28;20112;-70
2022/12/17 15:37:09;;;;;;;91.47;29.08;;;;;;;-3.36;73.93;99368.06;5090804;28;20107;-69
2022/12/17 15:39:34;;;;;;;93.05;29.70;;;;;;;-3.42;73.78;99366.09;5089660;28;20502;-70
2022/12/17 15:44:43;;;;;;;79.50;25.63;;;;;;;-3.46;74.17;99372.84;5090971;28;20536;-67
2022/12/17 15:47:10;;;;;;;82.82;28.65;;;;;;;-3.50;73.85;99380.44;5086835;28;20107;-69
2022/12/17 15:49:35;;;;;;;86.18;28.85;;;;;;;-3.53;73.91;99385.34;5086654;28;20464;-68
2022/12/17 15:52:00;;;;;;;89.90;31.70;;;;;;;-3.57;73.96;99392.09;5089269;28;20074;-69
2022/12/17 15:54:26;;;;;;;83.85;28.77;;;;;;;-3.58;74.04;99404.63;5089289;28;20520;-70
2022/12/17 15:56:54;;;;;;;78.65;25.80;;;;;;;-3.60;73.97;99395.94;5088076;28;20119;-68
2022/12/17 15:59:19;;;;;;;87.80;28.75;;;;;;;-3.64;73.76;99400.00;5087825;28;20024;-68
2022/12/17 16:01:45;;;;;;;87.07;28.33;;;;;;;-3.64;74.07;99406.22;5087709;28;20020;-69
2022/12/17 16:04:10;;;;;;;79.80;28.13;;;;;;;-3.61;74.42;99402.31;5088568;28;20035;-69
2022/12/17 16:06:35;;;;;;;88.45;27.63;;;;;;;-3.60;74.24;99402.16;5087956;28;20368;-69
2022/12/17 16:09:01;;;;;;;83.40;27.65;;;;;;;-3.61;73.96;99400.47;5088277;28;20411;-68
2022/12/17 16:11:26;;;;;;;105.78;33.92;;;;;;;-3.59;73.97;99411.00;5087756;28;20042;-71
2022/12/17 16:13:55;;;;;;;93.28;33.00;;;;;;;-3.61;74.16;99408.53;5087423;28;20032;-77
2022/12/17 16:16:22;;;;;;;91.90;29.85;;;;;;;-3.61;74.21;99418.41;5086169;28;20031;-78
2022/12/17 16:18:47;;;;;;;165.05;52.05;;;;;;;-3.58;73.94;99415.38;5088157;28;20024;-78
2022/12/17 16:21:12;;;;;;;106.20;39.67;;;;;;;-3.53;73.98;99418.34;5069544;28;20492;-78
2022/12/17 16:23:38;;;;;;;109.95;39.42;;;;;;;-3.49;73.95;99416.97;5088125;28;20103;-78
2022/12/17 16:26:06;;;;;;;102.57;35.17;;;;;;;-3.45;74.25;99422.78;5087440;28;20131;-77
2022/12/17 16:28:32;;;;;;;104.85;36.17;;;;;;;-3.47;73.84;99423.00;5088164;28;20036;-77
2022/12/17 16:30:59;;;;;;;112.80;41.40;;;;;;;-3.48;74.20;99429.38;5088159;28;20028;-77
2022/12/17 16:33:24;;;;;;;103.68;36.05;;;;;;;-3.47;74.18;99428.34;5088047;28;20555;-75
2022/12/17 16:35:53;;;;;;;79.93;28.30;;;;;;;-3.49;74.16;99425.00;5070623;28;20031;-76
2022/12/17 16:38:20;;;;;;;88.23;29.27;;;;;;;-3.49;74.34;99430.38;5088352;28;20024;-76
2022/12/17 16:40:45;;;;;;;81.65;27.35;;;;;;;-3.52;74.08;99436.09;5088124;28;20047;-77
2022/12/17 16:43:11;;;;;;;85.40;30.55;;;;;;;-3.56;74.05;99434.78;5088310;28;20062;-77
2022/12/17 16:45:46;;;;;;;88.38;31.27;;;;;;;-3.56;74.12;99447.38;5087304;28;20051;-76
2022/12/17 16:48:11;;;;;;;77.85;26.45;;;;;;;-3.56;73.99;99445.53;5088594;28;20115;-76
2022/12/17 16:50:37;;;;;;;83.22;27.88;;;;;;;-3.59;73.97;99448.56;5069562;28;20020;-76
2022/12/17 16:53:02;;;;;;;83.45;26.48;;;;;;;-3.65;73.83;99450.13;5069932;28;20016;-76
2022/12/17 16:55:27;;;;;;;85.72;28.75;;;;;;;-3.66;73.91;99452.97;5088421;28;20472;-76
2022/12/17 16:57:53;;;;;;;90.93;31.23;;;;;;;-3.69;74.17;99450.66;5087833;28;20376;-70
2022/12/17 17:00:18;;;;;;;83.97;26.83;;;;;;;-3.69;74.16;99453.34;5087793;28;20024;-78
2022/12/17 17:02:43;;;;;;;86.47;27.42;;;;;;;-3.71;74.15;99466.09;5087970;28;20086;-75
2022/12/17 17:05:09;;;;;;;86.05;28.88;;;;;;;-3.75;74.25;99468.28;5087932;28;20502;-75
2022/12/17 17:07:34;;;;;;;70.47;24.60;;;;;;;-3.71;74.54;99476.81;5088250;28;20047;-75
2022/12/17 17:09:59;;;;;;;84.32;27.23;;;;;;;-3.70;74.28;99465.91;5087747;28;20047;-76
2022/12/17 17:12:25;;;;;;;79.15;28.25;;;;;;;-3.68;74.37;99473.78;5086794;28;20039;-76
2022/12/17 17:14:51;;;;;;;80.88;25.92;;;;;;;-3.65;74.49;99476.09;5086798;28;20026;-74
2022/12/17 17:17:16;;;;;;;93.28;28.73;;;;;;;-3.64;74.18;99481.28;5087701;28;20024;-76
2022/12/17 17:19:41;;;;;;;86.32;26.92;;;;;;;-3.65;74.07;99478.75;5069671;28;20044;-76
2022/12/17 17:22:07;;;;;;;81.68;25.60;;;;;;;-3.63;74.30;99484.78;5086873;28;20024;-75
2022/12/17 17:24:32;;;;;;;82.43;28.63;;;;;;;-3.65;74.16;99497.53;5090155;28;20055;-76
2022/12/17 17:26:58;;;;;;;89.22;28.05;;;;;;;-3.69;73.84;99496.25;5073570;28;20111;-77
2022/12/17 17:29:24;;;;;;;87.82;28.17;;;;;;;-3.67;74.17;99504.94;5091499;28;20024;-76
2022/12/17 17:31:49;;;;;;;80.97;26.88;;;;;;;-3.64;74.27;99499.19;5073326;28;20089;-76
2022/12/17 17:34:15;;;;;;;75.88;25.63;;;;;;;-3.63;74.38;99506.22;5091649;28;20036;-76
2022/12/17 17:36:40;;;;;;;81.97;26.55;;;;;;;-3.66;74.19;99510.13;5074972;28;20027;-76
2022/12/17 17:39:06;;;;;;;89.25;29.65;;;;;;;-3.67;74.14;99518.34;5092901;28;20023;-76
2022/12/17 17:41:34;;;;;;;87.65;28.92;;;;;;;-3.68;73.96;99520.19;5091867;28;20502;-76
2022/12/17 17:44:05;;;;;;;94.45;33.28;;;;;;;-3.69;74.28;99523.88;5092535;28;20074;-76
2022/12/17 17:46:31;;;;;;;80.05;27.17;;;;;;;-3.69;74.07;99531.91;5087316;28;20103;-76
2022/12/17 17:48:58;;;;;;;84.65;26.63;;;;;;;-3.67;74.16;99534.44;5073385;28;20024;-78
2022/12/17 17:51:36;;;;;;;88.55;28.42;;;;;;;-3.66;74.31;99536.94;5090697;28;20112;-73
2022/12/17 17:54:02;;;;;;;91.07;30.35;;;;;;;-3.63;74.17;99538.41;5092852;28;20388;-79
2022/12/17 17:56:34;;;;;;;85.85;27.45;;;;;;;-3.62;74.05;99548.97;5093154;28;20064;-78
2022/12/17 17:59:02;;;;;;;88.50;28.50;;;;;;;-3.63;74.35;99544.63;5088350;28;20582;-72
2022/12/17 18:01:30;;;;;;;91.57;25.70;;;;;;;-3.67;74.19;99550.53;5089070;28;20108;-73
2022/12/17 18:03:59;;;;;;;89.20;26.10;;;;;;;-3.69;73.92;99566.78;5091264;28;20122;-73
2022/12/17 18:06:25;;;;;;;87.30;28.27;;;;;;;-3.69;74.15;99558.72;5091053;28;20380;-74
2022/12/17 18:08:51;;;;;;;101.13;37.60;;;;;;;-3.67;74.01;99570.13;5088909;28;20035;-72
2022/12/17 18:11:19;;;;;;;129.00;48.95;;;;;;;-3.65;73.86;99572.59;5086816;28;20084;-73
2022/12/17 18:13:54;;;;;;;130.60;55.47;;;;;;;-3.66;74.27;99576.31;5090513;28;20062;-72
2022/12/17 18:16:48;;;;;;;134.85;44.00;;;;;;;-3.67;74.25;99588.06;5090003;28;20047;-74
2022/12/17 18:19:19;;;;;;;141.65;40.83;;;;;;;-3.66;73.96;99593.25;5059029;28;20044;-75
2022/12/17 18:21:46;;;;;;;265.45;63.08;;;;;;;-3.63;74.42;99595.56;5070827;28;20531;-73
2022/12/17 18:24:16;;;;;;;136.73;38.53;;;;;;;-3.60;74.14;99591.69;5084839;28;20592;-74
2022/12/17 18:26:43;;;;;;;;;;;;;;;-3.59;74.16;99588.00;5087792;28;20020;-70
2022/12/17 18:29:20;;;;;;;107.05;30.27;;;;;;;-3.60;74.12;99586.31;5070419;28;19923;-70
2022/12/17 18:31:46;;;;;;;84.55;25.75;;;;;;;-3.68;74.03;99591.75;5084412;28;20043;-70
2022/12/17 18:34:14;;;;;;;91.18;27.08;;;;;;;-3.76;73.69;99597.97;5071824;28;20024;-69
2022/12/17 18:36:42;;;;;;;84.93;25.45;;;;;;;-3.80;73.64;99602.88;5090273;28;20031;-71
2022/12/17 18:39:20;;;;;;;76.80;25.67;;;;;;;-3.83;73.36;99608.56;5091335;28;20012;-71
2022/12/17 18:44:32;;;;;;;92.20;28.60;;;;;;;-3.89;73.87;99618.16;5091500;28;20097;-72
2022/12/17 18:46:58;;;;;;;71.30;22.15;;;;;;;-3.96;73.87;99622.53;5087913;28;20017;-70
2022/12/17 18:49:25;;;;;;;65.93;21.20;;;;;;;-3.98;73.86;99623.69;5090785;28;20032;-69
2022/12/17 18:51:52;;;;;;;66.07;22.40;;;;;;;-3.98;73.73;99623.69;5088162;28;20022;-69
2022/12/17 18:54:23;;;;;;;64.65;20.73;;;;;;;-4.00;73.68;99623.03;5089785;28;20068;-69
2022/12/17 18:56:49;;;;;;;73.90;23.60;;;;;;;-3.99;73.47;99638.09;5073157;28;20073;-71
2022/12/17 18:59:17;;;;;;;72.05;24.02;;;;;;;-3.99;73.70;99633.59;5090896;28;20049;-70
2022/12/17 19:01:44;;;;;;;93.22;29.15;;;;;;;-3.96;73.78;99643.97;5088089;28;20075;-71
2022/12/17 19:04:13;;;;;;;78.15;25.10;;;;;;;-3.93;73.71;99643.63;5085426;28;20047;-71
2022/12/17 19:06:42;;;;;;;97.03;30.40;;;;;;;-3.87;73.75;99655.50;5089795;28;20020;-71
2022/12/17 19:09:16;;;;;;;77.30;23.97;;;;;;;-3.86;73.83;99651.81;5091330;28;20016;-68
2022/12/17 19:11:41;;;;;;;76.50;24.60;;;;;;;-3.90;73.42;99658.50;5087325;28;20093;-69
2022/12/17 19:14:07;;;;;;;72.32;23.67;;;;;;;-3.93;73.23;99665.06;5086387;28;20480;-68
2022/12/17 19:16:32;;;;;;;61.38;21.23;;;;;;;-4.01;73.30;99675.81;5071262;28;20028;-69
2022/12/17 19:19:02;;;;;;;60.85;18.98;;;;;;;-4.12;73.14;99671.66;5090972;28;20023;-69
2022/12/17 19:21:29;;;;;;;57.55;19.08;;;;;;;-4.19;73.27;99682.19;5087505;28;20044;-70
2022/12/17 19:24:01;;;;;;;62.65;20.27;;;;;;;-4.27;73.50;99684.06;5090499;28;20492;-69
2022/12/17 19:26:27;;;;;;;50.63;18.80;;;;;;;-4.29;73.19;99692.28;5086403;28;20403;-71
2022/12/17 19:28:55;;;;;;;50.28;17.45;;;;;;;-4.35;73.08;99687.59;5088126;28;20032;-68
2022/12/17 19:31:23;;;;;;;51.15;18.10;;;;;;;-4.38;73.47;99685.25;5081671;28;20625;-78
2022/12/17 19:33:53;;;;;;;60.72;20.27;;;;;;;-4.38;73.86;99688.75;5073550;28;20040;-73
2022/12/17 19:36:20;;;;;;;52.67;18.00;;;;;;;-4.35;73.56;99695.63;5086699;28;20025;-74
2022/12/17 19:38:50;;;;;;;47.60;16.17;;;;;;;-4.31;73.17;99691.59;5086088;28;20531;-72
2022/12/17 19:41:17;;;;;;;65.78;19.65;;;;;;;-4.24;73.26;99699.78;5089684;28;20028;-73
2022/12/17 19:43:45;;;;;;;59.60;19.77;;;;;;;-4.22;73.49;99706.63;5087206;28;20039;-69
2022/12/17 19:46:14;;;;;;;60.85;23.17;;;;;;;-4.19;73.32;99708.16;5085945;28;20052;-69
2022/12/17 19:48:41;;;;;;;63.70;20.50;;;;;;;-4.18;73.47;99707.16;5069831;28;20036;-69
2022/12/17 19:51:08;;;;;;;59.47;20.00;;;;;;;-4.16;73.46;99715.00;5088033;28;20338;-71
2022/12/17 19:53:36;;;;;;;55.78;19.63;;;;;;;-4.16;73.51;99717.69;5088623;28;20073;-71
2022/12/17 19:56:18;;;;;;;52.38;18.15;;;;;;;-4.16;73.61;99723.91;5087305;28;20032;-70
2022/12/17 19:58:46;;;;;;;46.50;16.83;;;;;;;-4.14;73.87;99724.56;5086631;28;20079;-71
2022/12/17 20:01:14;;;;;;;52.55;16.50;;;;;;;-4.14;73.24;99724.56;5087861;28;20111;-71
2022/12/17 20:03:41;;;;;;;50.47;17.48;;;;;;;-4.20;73.02;99723.38;5087569;28;20024;-72
2022/12/17 20:06:08;;;;;;;56.10;19.33;;;;;;;-4.19;73.26;99743.81;5088621;28;20028;-76
2022/12/17 20:08:34;;;;;;;40.10;15.75;;;;;;;-4.23;73.63;99745.16;5088820;28;20067;-76
2022/12/17 20:11:01;;;;;;;48.10;16.33;;;;;;;-4.24;72.97;99746.16;5089100;28;20566;-76
2022/12/17 20:13:26;;;;;;;43.70;15.20;;;;;;;-4.23;73.48;99747.00;5086820;28;20034;-78
2022/12/17 20:16:03;;;;;;;47.45;17.27;;;;;;;-4.21;73.27;99743.13;5088932;28;20115;-76
2022/12/17 20:18:28;;;;;;;47.75;17.42;;;;;;;-4.16;73.35;99741.81;5085475;28;20244;-75
2022/12/17 20:21:02;;;;;;;53.25;18.80;;;;;;;-4.13;73.30;99752.19;5088272;28;20028;-75
2022/12/17 20:23:28;;;;;;;54.47;18.30;;;;;;;-4.07;73.66;99748.84;5088956;28;20031;-76
2022/12/17 20:26:09;;;;;;;53.38;19.40;;;;;;;-4.06;73.64;99753.19;5087690;28;20070;-76
2022/12/17 20:28:35;;;;;;;48.53;18.95;;;;;;;-4.02;73.13;99749.16;5084803;28;20052;-77
2022/12/17 20:31:01;;;;;;;54.60;21.85;;;;;;;-3.99;73.23;99750.66;5069285;28;20028;-78
2022/12/17 20:33:27;;;;;;;49.30;17.52;;;;;;;-3.99;73.51;99747.97;5088043;28;20024;-77
2022/12/17 20:35:53;;;;;;;49.10;18.15;;;;;;;-3.98;73.26;99758.56;5088299;28;20168;-76
2022/12/17 20:38:19;;;;;;;61.35;21.00;;;;;;;-3.95;73.86;99760.03;5088192;28;20530;-76
2022/12/17 20:40:44;;;;;;;72.35;24.45;;;;;;;-3.94;73.72;99765.25;5087868;28;20031;-75
2022/12/17 20:43:10;;;;;;;75.70;25.30;;;;;;;-3.89;73.53;99770.94;5088279;28;20086;-75
2022/12/17 20:45:35;;;;;;;72.57;26.40;;;;;;;-3.85;73.56;99775.94;5070133;28;20030;-73
2022/12/17 20:48:01;;;;;;;66.20;21.27;;;;;;;-3.85;73.36;99770.56;5088188;28;20477;-78
2022/12/17 20:50:27;;;;;;;53.78;18.13;;;;;;;-3.88;73.42;99761.03;5087200;28;20027;-78
2022/12/17 20:52:52;;;;;;;61.90;21.70;;;;;;;-3.85;73.61;99773.25;5087568;28;20055;-78
2022/12/17 20:55:18;;;;;;;55.22;19.88;;;;;;;-3.82;73.40;99773.78;5087614;28;20039;-75
2022/12/17 20:57:46;;;;;;;54.03;18.75;;;;;;;-3.80;73.35;99778.94;5086263;28;20036;-76
2022/12/17 21:00:11;;;;;;;56.50;19.60;;;;;;;-3.81;73.42;99770.06;5084004;28;20024;-78
2022/12/17 21:02:37;;;;;;;59.15;19.98;;;;;;;-3.80;73.40;99784.31;5087394;28;20024;-76
2022/12/17 21:05:04;;;;;;;49.55;17.83;;;;;;;-3.81;73.09;99782.63;5087233;28;20085;-71
2022/12/17 21:07:30;;;;;;;54.50;18.40;;;;;;;-3.83;72.86;99792.69;5087270;28;20055;-76
2022/12/17 21:09:56;;;;;;;48.90;17.00;;;;;;;-3.87;73.30;99794.06;5087796;28;20073;-75
2022/12/17 21:12:21;;;;;;;53.67;17.65;;;;;;;-3.90;73.17;99792.53;5087034;28;20032;-73
2022/12/17 21:14:47;;;;;;;49.38;17.08;;;;;;;-3.93;73.49;99799.09;5087163;28;20556;-75
2022/12/17 21:17:13;;;;;;;47.67;17.15;;;;;;;-3.98;73.04;99801.44;5086614;28;20542;-73
2022/12/17 21:19:39;;;;;;;48.40;16.75;;;;;;;-3.99;73.19;99807.78;5086102;28;20107;-73
2022/12/17 21:22:05;;;;;;;49.30;17.92;;;;;;;-3.99;73.11;99807.78;5087677;28;20035;-72
2022/12/17 21:24:30;;;;;;;46.60;17.52;;;;;;;-3.97;73.25;99813.81;5086732;28;20049;-72
2022/12/17 21:26:56;;;;;;;50.90;18.60;;;;;;;-3.96;73.26;99812.81;5083670;28;20052;-73
2022/12/17 21:29:21;;;;;;;56.92;18.52;;;;;;;-3.95;73.24;99830.56;5086644;28;20473;-71
2022/12/17 21:31:48;;;;;;;51.95;18.52;;;;;;;-3.94;73.39;99826.03;5086644;28;20077;-72
2022/12/17 21:34:22;;;;;;;55.03;18.25;;;;;;;-3.92;72.92;99840.13;5087178;28;20119;-71
2022/12/17 21:36:49;;;;;;;49.53;16.83;;;;;;;-3.93;73.28;99833.94;5087861;28;20024;-70
2022/12/17 21:39:15;;;;;;;46.70;16.42;;;;;;;-3.93;72.98;99844.66;5087272;28;20024;-74
2022/12/17 21:43:00;;;;;;;54.65;18.98;;;;;;;-3.90;72.93;99849.69;5086377;28;20024;-75
2022/12/17 21:44:28;;;;;;;53.85;19.85;;;;;;;-3.87;73.16;99848.50;5086641;28;20048;-70
2022/12/17 21:46:53;;;;;;;54.47;23.00;;;;;;;-3.85;72.89;99859.03;5087104;28;20089;-69
2022/12/17 21:49:19;;;;;;;43.67;16.98;;;;;;;-3.85;73.36;99853.66;5088309;28;20061;-69
2022/12/17 21:51:44;;;;;;;50.58;17.08;;;;;;;-3.85;73.28;99851.84;5087390;28;20071;-70
2022/12/17 21:54:09;;;;;;;50.17;16.95;;;;;;;-3.85;73.18;99861.72;5086983;28;20044;-70
2022/12/17 21:56:35;;;;;;;50.38;17.95;;;;;;;-3.86;73.38;99852.00;5068851;28;20049;-71
2022/12/17 21:59:00;;;;;;;43.42;15.32;;;;;;;-3.86;73.37;99860.03;5086537;28;20015;-70
2022/12/17 22:01:28;;;;;;;46.97;16.02;;;;;;;-3.87;73.11;99858.38;5087727;28;20598;-71
2022/12/17 22:03:56;;;;;;;46.70;18.17;;;;;;;-3.87;72.90;99859.22;5085821;28;20085;-71
2022/12/17 22:06:24;;;;;;;43.88;16.40;;;;;;;-3.82;73.21;99866.75;5084759;28;20511;-73
2022/12/17 22:08:50;;;;;;;45.72;17.08;;;;;;;-3.81;73.17;99857.69;5084731;28;20031;-72
2022/12/17 22:11:19;;;;;;;94.50;30.10;;;;;;;-3.81;73.05;99866.59;5090229;28;20017;-76
2022/12/17 22:16:30;;;;;;;79.72;24.55;;;;;;;-3.81;73.13;99865.75;5087361;28;20503;-72
2022/12/17 22:18:57;;;;;;;62.80;19.42;;;;;;;-3.81;73.38;99866.59;5089144;28;20090;-70
2022/12/17 22:21:23;;;;;;;48.97;17.60;;;;;;;-3.78;73.28;99876.13;5086869;28;20056;-71
2022/12/17 22:23:48;;;;;;;60.90;19.45;;;;;;;-3.72;73.17;99885.38;5085884;28;20730;-72
2022/12/17 22:26:16;;;;;;;52.33;17.92;;;;;;;-3.67;73.46;99878.47;5089687;28;20077;-69
2022/12/17 22:28:43;;;;;;;54.55;18.20;;;;;;;-3.65;73.25;99879.16;5091064;28;20020;-71
2022/12/17 22:33:58;;;;;;;57.53;18.35;;;;;;;-3.63;73.47;99882.50;5087293;28;20096;-70
2022/12/17 22:36:27;;;;;;;47.92;16.83;;;;;;;-3.62;73.40;99883.31;5090438;28;20024;-74
2022/12/17 22:38:52;;;;;;;52.97;17.20;;;;;;;-3.61;73.33;99875.13;5090003;28;20023;-71
2022/12/17 22:44:01;;;;;;;47.42;18.42;;;;;;;-3.60;73.16;99875.94;5085524;28;20039;-71
2022/12/17 22:46:29;;;;;;;59.35;20.67;;;;;;;-3.62;73.02;99881.50;5088134;28;20044;-73
2022/12/17 22:48:56;;;;;;;77.30;24.35;;;;;;;-3.61;72.79;99885.00;5090100;28;20024;-74
2022/12/17 22:51:22;;;;;;;69.95;21.67;;;;;;;-3.63;73.09;99895.91;5087789;28;20028;-76
2022/12/17 22:53:48;;;;;;;77.50;23.60;;;;;;;-3.65;73.24;99905.97;5091620;28;20069;-74
2022/12/17 22:56:13;;;;;;;70.05;22.73;;;;;;;-3.69;73.15;99904.63;5072554;28;20024;-75
2022/12/17 22:58:39;;;;;;;61.45;19.92;;;;;;;-3.69;73.08;99912.66;5088925;28;20114;-76
2022/12/17 23:01:04;;;;;;;63.53;20.15;;;;;;;-3.65;73.00;99915.84;5088859;28;20119;-75
2022/12/17 23:03:30;;;;;;;68.50;21.58;;;;;;;-3.62;73.22;99913.69;5088779;28;20066;-74
2022/12/17 23:06:09;;;;;;;56.70;21.05;;;;;;;-3.61;73.17;99922.56;5087321;28;20027;-70
2022/12/17 23:08:35;;;;;;;61.58;20.80;;;;;;;-3.58;73.09;99916.84;5059387;28;20024;-73
2022/12/17 23:11:08;;;;;;;60.85;20.40;;;;;;;-3.55;73.16;99924.56;5089456;28;20028;-73
2022/12/17 23:13:34;;;;;;;57.28;18.98;;;;;;;-3.53;73.11;99929.78;5088507;28;20100;-75
2022/12/17 23:16:00;;;;;;;59.42;19.58;;;;;;;-3.53;73.06;99930.59;5087844;28;20032;-75
2022/12/17 23:18:25;;;;;;;54.35;18.95;;;;;;;-3.56;72.93;99936.28;5090634;28;20483;-74
2022/12/17 23:20:51;;;;;;;65.68;21.42;;;;;;;-3.63;73.16;99928.09;5088626;28;20679;-78
2022/12/17 23:23:16;;;;;;;58.70;20.30;;;;;;;-3.64;72.70;99934.47;5089241;28;20028;-75
2022/12/17 23:25:42;;;;;;;53.28;18.25;;;;;;;-3.64;72.83;99942.50;5072383;28;20067;-72
2022/12/17 23:28:07;;;;;;;58.00;19.73;;;;;;;-3.61;73.04;99939.50;5073069;28;20035;-77
2022/12/17 23:30:34;;;;;;;53.08;20.05;;;;;;;-3.64;72.85;99928.25;5090938;28;20028;-77
2022/12/17 23:33:00;;;;;;;57.05;20.20;;;;;;;-3.62;73.01;99931.59;5091194;28;20555;-70
2022/12/17 23:35:25;;;;;;;51.22;17.70;;;;;;;-3.65;72.99;99943.50;5090998;28;20035;-72
2022/12/17 23:37:51;;;;;;;41.78;15.98;;;;;;;-3.68;72.51;99943.00;5091570;28;20454;-72
2022/12/17 23:40:16;;;;;;;48.85;17.63;;;;;;;-3.73;72.56;99943.50;5091772;28;20035;-72
2022/12/17 23:42:41;;;;;;;54.90;19.52;;;;;;;-3.76;72.88;99954.56;5091901;28;20036;-71
2022/12/17 23:45:09;;;;;;;53.65;17.13;;;;;;;-3.72;72.72;99949.72;5091544;28;20059;-71
2022/12/17 23:47:35;;;;;;;51.17;18.38;;;;;;;-3.70;72.55;99953.91;5091467;28;20101;-70
2022/12/17 23:50:00;;;;;;;60.22;21.63;;;;;;;-3.65;72.95;99962.28;5090522;28;20452;-70
2022/12/17 23:52:26;;;;;;;54.05;18.08;;;;;;;-3.61;73.06;99973.50;5091420;28;20525;-71
2022/12/17 23:54:51;;;;;;;67.85;23.42;;;;;;;-3.56;73.21;99967.66;5091777;28;20028;-70
2022/12/17 23:57:16;;;;;;;51.20;19.48;;;;;;;-3.56;72.92;99970.34;5090374;28;20469;-71
2022/12/17 23:59:42;;;;;;;50.40;18.17;;;;;;;-3.57;72.94;99971.34;5091232;28;20035;-72
